CYXH

Medicine Hat Airport

Medicine Hat, Alberta, Canada
METAR CYXH 161400Z 25003KT 15SM BKN100 OVC270 M02/M06 A2996 RMK AC6CI2 SLP175
Observed Flight Rules
Dec-16 @ 14:00 UTC (58 minutes ago) Visual Flight Rules
Wind Visibility Clouds
250° at 3 knots 15 miles
  • Broken at 10,000' AGL
  • Overcast at 27,000' AGL
Temperatures Readings
Current -2°C / 28°F
Dewpoint -6°C / 21°F
Humidity 74%
Altimeter 29.96" Hg
Pressure 1017.5 hPa
Elevation 716
METAR CYXH 161400Z 25003KT 15SM BKN100 OVC270 M02/M06 A2996 RMK AC6CI2 SLP175
Observed Flight Rules
Dec-16 @ 14:00 UTC
(58 minutes ago)
VFR
Wind Visibility
250° at 3 knots 15 miles
Clouds
  • Broken at 10,000' AGL
  • Overcast at 27,000' AGL
Temperature Dewpoint
-2°C / 28°F -6°C / 21°F
Humidity Altimeter Pressure
74% 29.96" Hg 1017.5 hPa